sensor_id;sensor_type;location;lat;lon;timestamp;P1;durP1;ratioP1;P2;durP2;ratioP2
25175;SDS011;13135;55.166;61.286;2023-05-20T00:01:18;6.67;;;3.27;;
25175;SDS011;13135;55.166;61.286;2023-05-20T00:04:04;7.70;;;3.13;;
25175;SDS011;13135;55.166;61.286;2023-05-20T00:06:49;4.83;;;3.20;;
25175;SDS011;13135;55.166;61.286;2023-05-20T00:09:33;5.47;;;3.40;;
25175;SDS011;13135;55.166;61.286;2023-05-20T00:12:20;6.23;;;3.23;;
25175;SDS011;13135;55.166;61.286;2023-05-20T00:15:06;5.03;;;3.23;;
25175;SDS011;13135;55.166;61.286;2023-05-20T00:17:49;7.93;;;3.40;;
25175;SDS011;13135;55.166;61.286;2023-05-20T00:20:34;8.43;;;3.20;;
25175;SDS011;13135;55.166;61.286;2023-05-20T00:23:19;7.20;;;3.57;;
25175;SDS011;13135;55.166;61.286;2023-05-20T00:26:04;7.87;;;3.60;;
25175;SDS011;13135;55.166;61.286;2023-05-20T00:28:51;5.47;;;3.20;;
25175;SDS011;13135;55.166;61.286;2023-05-20T00:31:36;10.57;;;3.80;;
25175;SDS011;13135;55.166;61.286;2023-05-20T00:34:20;9.02;;;3.50;;
25175;SDS011;13135;55.166;61.286;2023-05-20T00:37:05;8.07;;;3.72;;
25175;SDS011;13135;55.166;61.286;2023-05-20T00:39:49;7.73;;;3.87;;
25175;SDS011;13135;55.166;61.286;2023-05-20T00:42:31;7.03;;;3.08;;
25175;SDS011;13135;55.166;61.286;2023-05-20T00:45:16;8.07;;;3.37;;
25175;SDS011;13135;55.166;61.286;2023-05-20T00:47:58;6.60;;;3.30;;
25175;SDS011;13135;55.166;61.286;2023-05-20T00:50:42;10.07;;;3.30;;
25175;SDS011;13135;55.166;61.286;2023-05-20T00:53:28;6.83;;;3.53;;
25175;SDS011;13135;55.166;61.286;2023-05-20T00:56:13;7.87;;;3.60;;
25175;SDS011;13135;55.166;61.286;2023-05-20T00:59:07;7.70;;;4.13;;
25175;SDS011;13135;55.166;61.286;2023-05-20T01:02:11;8.63;;;3.90;;
25175;SDS011;13135;55.166;61.286;2023-05-20T01:04:55;9.97;;;4.03;;
25175;SDS011;13135;55.166;61.286;2023-05-20T01:07:40;8.37;;;4.00;;
25175;SDS011;13135;55.166;61.286;2023-05-20T01:10:24;7.50;;;3.90;;
25175;SDS011;13135;55.166;61.286;2023-05-20T01:13:10;8.02;;;3.87;;
25175;SDS011;13135;55.166;61.286;2023-05-20T01:15:52;11.60;;;4.17;;
25175;SDS011;13135;55.166;61.286;2023-05-20T01:18:41;10.30;;;4.00;;
25175;SDS011;13135;55.166;61.286;2023-05-20T01:21:29;10.13;;;4.28;;
25175;SDS011;13135;55.166;61.286;2023-05-20T01:27:14;10.37;;;4.57;;
25175;SDS011;13135;55.166;61.286;2023-05-20T01:29:59;8.87;;;3.90;;
25175;SDS011;13135;55.166;61.286;2023-05-20T01:32:43;8.53;;;4.13;;
25175;SDS011;13135;55.166;61.286;2023-05-20T01:35:26;7.03;;;4.07;;
25175;SDS011;13135;55.166;61.286;2023-05-20T01:38:13;8.60;;;4.17;;
25175;SDS011;13135;55.166;61.286;2023-05-20T01:41:00;10.17;;;3.87;;
25175;SDS011;13135;55.166;61.286;2023-05-20T01:43:48;10.27;;;4.32;;
25175;SDS011;13135;55.166;61.286;2023-05-20T01:46:32;10.20;;;3.72;;
25175;SDS011;13135;55.166;61.286;2023-05-20T01:49:17;9.03;;;3.80;;
25175;SDS011;13135;55.166;61.286;2023-05-20T01:52:02;7.78;;;4.03;;
25175;SDS011;13135;55.166;61.286;2023-05-20T01:54:47;10.33;;;3.73;;
25175;SDS011;13135;55.166;61.286;2023-05-20T01:57:32;10.10;;;3.97;;
25175;SDS011;13135;55.166;61.286;2023-05-20T02:00:16;5.97;;;3.47;;
25175;SDS011;13135;55.166;61.286;2023-05-20T02:03:03;6.57;;;3.83;;
25175;SDS011;13135;55.166;61.286;2023-05-20T02:05:47;8.70;;;4.37;;
25175;SDS011;13135;55.166;61.286;2023-05-20T02:08:30;9.17;;;4.07;;
25175;SDS011;13135;55.166;61.286;2023-05-20T02:11:16;10.43;;;3.83;;
25175;SDS011;13135;55.166;61.286;2023-05-20T02:14:01;6.70;;;3.60;;
25175;SDS011;13135;55.166;61.286;2023-05-20T02:16:48;8.23;;;4.00;;
25175;SDS011;13135;55.166;61.286;2023-05-20T02:19:33;10.50;;;3.70;;
25175;SDS011;13135;55.166;61.286;2023-05-20T02:22:17;7.12;;;3.62;;
25175;SDS011;13135;55.166;61.286;2023-05-20T02:25:04;10.65;;;4.40;;
25175;SDS011;13135;55.166;61.286;2023-05-20T02:31:24;14.20;;;4.20;;
25175;SDS011;13135;55.166;61.286;2023-05-20T02:34:33;8.77;;;3.75;;
25175;SDS011;13135;55.166;61.286;2023-05-20T02:37:44;8.90;;;5.07;;
25175;SDS011;13135;55.166;61.286;2023-05-20T02:40:29;8.00;;;4.03;;
25175;SDS011;13135;55.166;61.286;2023-05-20T02:43:16;10.20;;;5.15;;
25175;SDS011;13135;55.166;61.286;2023-05-20T02:45:59;10.75;;;5.57;;
25175;SDS011;13135;55.166;61.286;2023-05-20T02:48:43;7.55;;;4.03;;
25175;SDS011;13135;55.166;61.286;2023-05-20T02:51:37;14.30;;;7.00;;
25175;SDS011;13135;55.166;61.286;2023-05-20T02:54:22;14.40;;;4.97;;
25175;SDS011;13135;55.166;61.286;2023-05-20T02:57:09;13.20;;;6.30;;
25175;SDS011;13135;55.166;61.286;2023-05-20T02:59:54;10.70;;;5.03;;
25175;SDS011;13135;55.166;61.286;2023-05-20T03:02:39;15.85;;;5.32;;
25175;SDS011;13135;55.166;61.286;2023-05-20T03:05:24;7.80;;;4.32;;
25175;SDS011;13135;55.166;61.286;2023-05-20T03:08:09;10.18;;;4.60;;
25175;SDS011;13135;55.166;61.286;2023-05-20T03:10:53;10.23;;;4.87;;
25175;SDS011;13135;55.166;61.286;2023-05-20T03:13:37;20.10;;;9.57;;
25175;SDS011;13135;55.166;61.286;2023-05-20T03:16:21;10.70;;;4.35;;
25175;SDS011;13135;55.166;61.286;2023-05-20T03:19:06;10.20;;;4.80;;
25175;SDS011;13135;55.166;61.286;2023-05-20T03:21:48;8.10;;;4.82;;
25175;SDS011;13135;55.166;61.286;2023-05-20T03:24:32;12.82;;;4.65;;
25175;SDS011;13135;55.166;61.286;2023-05-20T03:30:19;8.02;;;4.90;;
25175;SDS011;13135;55.166;61.286;2023-05-20T03:33:04;10.48;;;5.62;;
25175;SDS011;13135;55.166;61.286;2023-05-20T03:35:48;19.25;;;7.35;;
25175;SDS011;13135;55.166;61.286;2023-05-20T03:38:35;15.80;;;6.80;;
25175;SDS011;13135;55.166;61.286;2023-05-20T03:41:20;16.62;;;7.53;;
25175;SDS011;13135;55.166;61.286;2023-05-20T03:44:04;14.52;;;6.62;;
25175;SDS011;13135;55.166;61.286;2023-05-20T03:46:48;28.10;;;12.85;;
25175;SDS011;13135;55.166;61.286;2023-05-20T03:49:35;10.98;;;5.70;;
25175;SDS011;13135;55.166;61.286;2023-05-20T03:52:22;15.25;;;6.15;;
25175;SDS011;13135;55.166;61.286;2023-05-20T03:55:07;9.95;;;5.10;;
25175;SDS011;13135;55.166;61.286;2023-05-20T03:57:54;13.05;;;6.87;;
25175;SDS011;13135;55.166;61.286;2023-05-20T04:03:52;15.95;;;6.62;;
25175;SDS011;13135;55.166;61.286;2023-05-20T04:06:39;12.95;;;6.15;;
25175;SDS011;13135;55.166;61.286;2023-05-20T04:09:26;10.57;;;4.45;;
25175;SDS011;13135;55.166;61.286;2023-05-20T04:12:11;11.88;;;4.62;;
25175;SDS011;13135;55.166;61.286;2023-05-20T04:14:53;11.07;;;3.78;;
25175;SDS011;13135;55.166;61.286;2023-05-20T04:17:37;14.38;;;4.20;;
25175;SDS011;13135;55.166;61.286;2023-05-20T04:20:22;7.87;;;4.00;;
25175;SDS011;13135;55.166;61.286;2023-05-20T04:23:09;13.65;;;3.22;;
25175;SDS011;13135;55.166;61.286;2023-05-20T04:25:53;7.82;;;3.40;;
25175;SDS011;13135;55.166;61.286;2023-05-20T04:28:36;6.65;;;2.90;;
25175;SDS011;13135;55.166;61.286;2023-05-20T04:31:20;11.00;;;4.12;;
25175;SDS011;13135;55.166;61.286;2023-05-20T04:34:04;6.82;;;3.80;;
25175;SDS011;13135;55.166;61.286;2023-05-20T04:36:51;5.72;;;3.20;;
25175;SDS011;13135;55.166;61.286;2023-05-20T04:39:37;8.90;;;4.03;;
25175;SDS011;13135;55.166;61.286;2023-05-20T04:42:22;6.05;;;3.25;;
25175;SDS011;13135;55.166;61.286;2023-05-20T04:45:06;8.77;;;4.12;;
25175;SDS011;13135;55.166;61.286;2023-05-20T04:47:50;16.98;;;3.80;;
25175;SDS011;13135;55.166;61.286;2023-05-20T04:50:31;20.90;;;12.63;;
25175;SDS011;13135;55.166;61.286;2023-05-20T04:53:15;12.95;;;5.00;;
25175;SDS011;13135;55.166;61.286;2023-05-20T04:56:00;15.05;;;6.75;;
25175;SDS011;13135;55.166;61.286;2023-05-20T04:58:47;22.67;;;8.07;;
25175;SDS011;13135;55.166;61.286;2023-05-20T05:01:33;5.62;;;3.45;;
25175;SDS011;13135;55.166;61.286;2023-05-20T05:04:18;11.52;;;4.47;;
25175;SDS011;13135;55.166;61.286;2023-05-20T05:07:05;8.27;;;4.32;;
25175;SDS011;13135;55.166;61.286;2023-05-20T05:09:52;13.65;;;4.07;;
25175;SDS011;13135;55.166;61.286;2023-05-20T05:12:37;9.40;;;3.28;;
25175;SDS011;13135;55.166;61.286;2023-05-20T05:15:24;7.60;;;3.78;;
25175;SDS011;13135;55.166;61.286;2023-05-20T05:18:09;10.55;;;3.20;;
25175;SDS011;13135;55.166;61.286;2023-05-20T05:20:58;7.85;;;3.45;;
25175;SDS011;13135;55.166;61.286;2023-05-20T05:23:43;6.50;;;3.17;;
25175;SDS011;13135;55.166;61.286;2023-05-20T05:26:28;8.25;;;3.40;;
25175;SDS011;13135;55.166;61.286;2023-05-20T05:29:12;6.05;;;4.18;;
25175;SDS011;13135;55.166;61.286;2023-05-20T05:31:55;19.00;;;8.63;;
25175;SDS011;13135;55.166;61.286;2023-05-20T05:34:42;5.37;;;2.78;;
25175;SDS011;13135;55.166;61.286;2023-05-20T05:37:28;11.18;;;3.30;;
25175;SDS011;13135;55.166;61.286;2023-05-20T05:40:12;11.45;;;3.20;;
25175;SDS011;13135;55.166;61.286;2023-05-20T05:42:58;10.00;;;3.28;;
25175;SDS011;13135;55.166;61.286;2023-05-20T05:45:43;9.05;;;3.42;;
25175;SDS011;13135;55.166;61.286;2023-05-20T05:48:27;13.30;;;3.80;;
25175;SDS011;13135;55.166;61.286;2023-05-20T05:51:12;7.37;;;3.15;;
25175;SDS011;13135;55.166;61.286;2023-05-20T05:53:57;14.43;;;3.72;;
25175;SDS011;13135;55.166;61.286;2023-05-20T05:56:42;6.10;;;2.65;;
25175;SDS011;13135;55.166;61.286;2023-05-20T05:59:28;9.43;;;3.42;;
25175;SDS011;13135;55.166;61.286;2023-05-20T06:02:15;8.60;;;2.37;;
25175;SDS011;13135;55.166;61.286;2023-05-20T06:04:56;5.57;;;2.20;;
25175;SDS011;13135;55.166;61.286;2023-05-20T06:07:41;4.68;;;1.95;;
25175;SDS011;13135;55.166;61.286;2023-05-20T06:10:27;7.18;;;2.00;;
25175;SDS011;13135;55.166;61.286;2023-05-20T06:13:11;11.05;;;2.95;;
25175;SDS011;13135;55.166;61.286;2023-05-20T06:15:54;10.13;;;2.53;;
25175;SDS011;13135;55.166;61.286;2023-05-20T06:18:38;7.07;;;1.90;;
25175;SDS011;13135;55.166;61.286;2023-05-20T06:21:25;5.53;;;1.80;;
25175;SDS011;13135;55.166;61.286;2023-05-20T06:24:10;4.28;;;2.00;;
25175;SDS011;13135;55.166;61.286;2023-05-20T06:26:55;5.30;;;1.80;;
25175;SDS011;13135;55.166;61.286;2023-05-20T06:29:41;4.10;;;1.83;;
25175;SDS011;13135;55.166;61.286;2023-05-20T06:32:26;8.88;;;2.22;;
25175;SDS011;13135;55.166;61.286;2023-05-20T06:35:11;3.12;;;1.80;;
25175;SDS011;13135;55.166;61.286;2023-05-20T06:37:57;6.53;;;2.05;;
25175;SDS011;13135;55.166;61.286;2023-05-20T06:40:41;3.85;;;1.90;;
25175;SDS011;13135;55.166;61.286;2023-05-20T06:43:25;8.18;;;1.75;;
25175;SDS011;13135;55.166;61.286;2023-05-20T06:46:11;4.68;;;1.80;;
25175;SDS011;13135;55.166;61.286;2023-05-20T06:48:58;4.03;;;1.92;;
25175;SDS011;13135;55.166;61.286;2023-05-20T06:51:45;3.05;;;1.85;;
25175;SDS011;13135;55.166;61.286;2023-05-20T06:54:30;4.30;;;1.70;;
25175;SDS011;13135;55.166;61.286;2023-05-20T06:57:16;3.87;;;2.25;;
25175;SDS011;13135;55.166;61.286;2023-05-20T07:00:00;7.22;;;3.05;;
25175;SDS011;13135;55.166;61.286;2023-05-20T07:02:44;6.72;;;2.50;;
25175;SDS011;13135;55.166;61.286;2023-05-20T07:05:29;6.28;;;1.77;;
25175;SDS011;13135;55.166;61.286;2023-05-20T07:08:13;5.43;;;1.83;;
25175;SDS011;13135;55.166;61.286;2023-05-20T07:10:57;7.65;;;2.20;;
25175;SDS011;13135;55.166;61.286;2023-05-20T07:13:38;4.43;;;1.83;;
25175;SDS011;13135;55.166;61.286;2023-05-20T07:16:24;9.70;;;2.37;;
25175;SDS011;13135;55.166;61.286;2023-05-20T07:19:09;6.20;;;2.00;;
25175;SDS011;13135;55.166;61.286;2023-05-20T07:21:54;7.20;;;2.22;;
25175;SDS011;13135;55.166;61.286;2023-05-20T07:24:39;3.65;;;2.00;;
25175;SDS011;13135;55.166;61.286;2023-05-20T07:27:26;5.43;;;2.05;;
25175;SDS011;13135;55.166;61.286;2023-05-20T07:30:13;8.48;;;3.85;;
25175;SDS011;13135;55.166;61.286;2023-05-20T07:32:58;12.43;;;3.33;;
25175;SDS011;13135;55.166;61.286;2023-05-20T07:35:43;5.18;;;2.60;;
25175;SDS011;13135;55.166;61.286;2023-05-20T07:41:36;8.73;;;2.33;;
25175;SDS011;13135;55.166;61.286;2023-05-20T07:44:21;6.53;;;1.87;;
25175;SDS011;13135;55.166;61.286;2023-05-20T07:47:12;3.10;;;2.17;;
25175;SDS011;13135;55.166;61.286;2023-05-20T07:49:58;5.10;;;2.40;;
25175;SDS011;13135;55.166;61.286;2023-05-20T07:52:45;5.82;;;2.28;;
25175;SDS011;13135;55.166;61.286;2023-05-20T07:55:33;6.30;;;2.20;;
25175;SDS011;13135;55.166;61.286;2023-05-20T07:58:17;4.60;;;2.05;;
25175;SDS011;13135;55.166;61.286;2023-05-20T08:00:58;4.72;;;1.95;;
25175;SDS011;13135;55.166;61.286;2023-05-20T08:03:42;3.78;;;1.75;;
25175;SDS011;13135;55.166;61.286;2023-05-20T08:06:27;7.97;;;2.20;;
25175;SDS011;13135;55.166;61.286;2023-05-20T08:09:11;7.22;;;2.47;;
25175;SDS011;13135;55.166;61.286;2023-05-20T08:11:58;4.12;;;2.40;;
25175;SDS011;13135;55.166;61.286;2023-05-20T08:14:46;4.30;;;2.10;;
25175;SDS011;13135;55.166;61.286;2023-05-20T08:17:33;6.12;;;3.95;;
25175;SDS011;13135;55.166;61.286;2023-05-20T08:20:16;6.25;;;2.20;;
25175;SDS011;13135;55.166;61.286;2023-05-20T08:23:03;5.40;;;2.20;;
25175;SDS011;13135;55.166;61.286;2023-05-20T08:25:50;7.12;;;2.42;;
25175;SDS011;13135;55.166;61.286;2023-05-20T08:28:35;4.82;;;2.12;;
25175;SDS011;13135;55.166;61.286;2023-05-20T08:31:22;10.65;;;2.65;;
25175;SDS011;13135;55.166;61.286;2023-05-20T08:34:07;6.62;;;2.03;;
25175;SDS011;13135;55.166;61.286;2023-05-20T08:36:51;6.03;;;2.15;;
25175;SDS011;13135;55.166;61.286;2023-05-20T08:39:36;5.40;;;1.92;;
25175;SDS011;13135;55.166;61.286;2023-05-20T08:42:22;6.12;;;1.92;;
25175;SDS011;13135;55.166;61.286;2023-05-20T08:45:08;4.80;;;1.75;;
25175;SDS011;13135;55.166;61.286;2023-05-20T08:47:55;5.20;;;1.52;;
25175;SDS011;13135;55.166;61.286;2023-05-20T08:50:41;6.95;;;2.20;;
25175;SDS011;13135;55.166;61.286;2023-05-20T08:53:27;9.55;;;5.30;;
25175;SDS011;13135;55.166;61.286;2023-05-20T08:56:08;6.15;;;2.83;;
25175;SDS011;13135;55.166;61.286;2023-05-20T08:58:53;3.92;;;2.00;;
25175;SDS011;13135;55.166;61.286;2023-05-20T09:01:40;5.18;;;1.87;;
25175;SDS011;13135;55.166;61.286;2023-05-20T09:04:23;3.25;;;1.62;;
25175;SDS011;13135;55.166;61.286;2023-05-20T09:07:10;6.72;;;4.57;;
25175;SDS011;13135;55.166;61.286;2023-05-20T09:09:56;5.35;;;2.55;;
25175;SDS011;13135;55.166;61.286;2023-05-20T09:12:42;3.37;;;1.52;;
25175;SDS011;13135;55.166;61.286;2023-05-20T09:15:27;4.62;;;2.70;;
25175;SDS011;13135;55.166;61.286;2023-05-20T09:18:12;3.33;;;1.75;;
25175;SDS011;13135;55.166;61.286;2023-05-20T09:20:57;5.90;;;1.92;;
25175;SDS011;13135;55.166;61.286;2023-05-20T09:23:45;4.85;;;1.40;;
25175;SDS011;13135;55.166;61.286;2023-05-20T09:26:26;6.78;;;1.80;;
25175;SDS011;13135;55.166;61.286;2023-05-20T09:29:10;2.55;;;1.50;;
25175;SDS011;13135;55.166;61.286;2023-05-20T09:31:54;3.65;;;1.48;;
25175;SDS011;13135;55.166;61.286;2023-05-20T09:34:38;3.95;;;1.50;;
25175;SDS011;13135;55.166;61.286;2023-05-20T09:37:25;3.45;;;1.60;;
25175;SDS011;13135;55.166;61.286;2023-05-20T09:40:10;6.45;;;1.98;;
25175;SDS011;13135;55.166;61.286;2023-05-20T09:43:00;5.55;;;1.70;;
25175;SDS011;13135;55.166;61.286;2023-05-20T09:45:46;7.15;;;1.70;;
25175;SDS011;13135;55.166;61.286;2023-05-20T09:48:34;3.85;;;1.73;;
25175;SDS011;13135;55.166;61.286;2023-05-20T09:51:21;6.00;;;3.35;;
25175;SDS011;13135;55.166;61.286;2023-05-20T09:54:06;3.20;;;1.60;;
25175;SDS011;13135;55.166;61.286;2023-05-20T09:56:54;3.35;;;1.80;;
25175;SDS011;13135;55.166;61.286;2023-05-20T09:59:39;3.55;;;1.90;;
25175;SDS011;13135;55.166;61.286;2023-05-20T10:02:33;3.90;;;1.83;;
25175;SDS011;13135;55.166;61.286;2023-05-20T10:05:20;3.37;;;2.40;;
25175;SDS011;13135;55.166;61.286;2023-05-20T10:08:28;4.10;;;2.45;;
25175;SDS011;13135;55.166;61.286;2023-05-20T10:11:26;4.80;;;1.90;;
25175;SDS011;13135;55.166;61.286;2023-05-20T10:17:21;7.87;;;2.42;;
25175;SDS011;13135;55.166;61.286;2023-05-20T10:20:06;5.32;;;2.15;;
25175;SDS011;13135;55.166;61.286;2023-05-20T10:22:55;6.40;;;2.00;;
25175;SDS011;13135;55.166;61.286;2023-05-20T10:25:48;3.92;;;2.42;;
25175;SDS011;13135;55.166;61.286;2023-05-20T10:28:28;6.15;;;2.60;;
25175;SDS011;13135;55.166;61.286;2023-05-20T10:31:14;5.45;;;2.47;;
25175;SDS011;13135;55.166;61.286;2023-05-20T10:33:59;4.82;;;2.45;;
25175;SDS011;13135;55.166;61.286;2023-05-20T10:36:56;3.67;;;2.65;;
25175;SDS011;13135;55.166;61.286;2023-05-20T10:39:45;7.30;;;3.85;;
25175;SDS011;13135;55.166;61.286;2023-05-20T10:42:30;4.75;;;3.12;;
25175;SDS011;13135;55.166;61.286;2023-05-20T10:48:18;4.28;;;2.83;;
25175;SDS011;13135;55.166;61.286;2023-05-20T10:50:56;6.82;;;2.70;;
25175;SDS011;13135;55.166;61.286;2023-05-20T10:53:40;4.65;;;2.70;;
25175;SDS011;13135;55.166;61.286;2023-05-20T10:56:25;2.25;;;1.98;;
25175;SDS011;13135;55.166;61.286;2023-05-20T10:59:10;5.43;;;1.90;;
25175;SDS011;13135;55.166;61.286;2023-05-20T11:01:55;3.70;;;2.10;;
25175;SDS011;13135;55.166;61.286;2023-05-20T11:04:47;3.03;;;1.83;;
25175;SDS011;13135;55.166;61.286;2023-05-20T11:07:32;3.37;;;1.90;;
25175;SDS011;13135;55.166;61.286;2023-05-20T11:10:17;5.07;;;1.80;;
25175;SDS011;13135;55.166;61.286;2023-05-20T11:13:04;8.25;;;1.80;;
25175;SDS011;13135;55.166;61.286;2023-05-20T11:15:48;4.25;;;1.90;;
25175;SDS011;13135;55.166;61.286;2023-05-20T11:18:34;6.30;;;1.95;;
25175;SDS011;13135;55.166;61.286;2023-05-20T11:21:18;2.62;;;1.75;;
25175;SDS011;13135;55.166;61.286;2023-05-20T11:24:03;4.40;;;1.70;;
25175;SDS011;13135;55.166;61.286;2023-05-20T11:26:48;5.45;;;1.77;;
25175;SDS011;13135;55.166;61.286;2023-05-20T11:29:33;5.60;;;1.77;;
25175;SDS011;13135;55.166;61.286;2023-05-20T11:32:18;3.92;;;3.10;;
25175;SDS011;13135;55.166;61.286;2023-05-20T11:35:03;5.00;;;1.98;;
25175;SDS011;13135;55.166;61.286;2023-05-20T11:37:53;5.12;;;2.75;;
25175;SDS011;13135;55.166;61.286;2023-05-20T11:40:41;2.33;;;1.87;;
25175;SDS011;13135;55.166;61.286;2023-05-20T11:43:22;5.85;;;2.50;;
25175;SDS011;13135;55.166;61.286;2023-05-20T11:46:07;4.45;;;2.10;;
25175;SDS011;13135;55.166;61.286;2023-05-20T11:48:53;3.90;;;2.10;;
25175;SDS011;13135;55.166;61.286;2023-05-20T11:51:39;3.62;;;1.40;;
25175;SDS011;13135;55.166;61.286;2023-05-20T11:54:24;5.87;;;2.10;;
25175;SDS011;13135;55.166;61.286;2023-05-20T11:57:10;4.28;;;1.70;;
25175;SDS011;13135;55.166;61.286;2023-05-20T11:59:55;4.40;;;1.60;;
25175;SDS011;13135;55.166;61.286;2023-05-20T12:02:41;3.95;;;1.62;;
25175;SDS011;13135;55.166;61.286;2023-05-20T12:08:41;6.03;;;3.05;;
25175;SDS011;13135;55.166;61.286;2023-05-20T12:11:25;6.03;;;2.60;;
25175;SDS011;13135;55.166;61.286;2023-05-20T12:14:12;5.72;;;2.65;;
25175;SDS011;13135;55.166;61.286;2023-05-20T12:16:58;3.25;;;1.67;;
25175;SDS011;13135;55.166;61.286;2023-05-20T12:19:44;2.90;;;1.62;;
25175;SDS011;13135;55.166;61.286;2023-05-20T12:22:29;4.87;;;1.70;;
25175;SDS011;13135;55.166;61.286;2023-05-20T12:25:15;4.03;;;1.70;;
25175;SDS011;13135;55.166;61.286;2023-05-20T12:28:00;2.00;;;1.50;;
25175;SDS011;13135;55.166;61.286;2023-05-20T12:30:44;3.35;;;1.50;;
25175;SDS011;13135;55.166;61.286;2023-05-20T12:36:48;3.25;;;1.50;;
25175;SDS011;13135;55.166;61.286;2023-05-20T12:39:33;5.00;;;2.25;;
25175;SDS011;13135;55.166;61.286;2023-05-20T12:42:18;3.87;;;2.15;;
25175;SDS011;13135;55.166;61.286;2023-05-20T12:45:03;4.45;;;1.80;;
25175;SDS011;13135;55.166;61.286;2023-05-20T12:47:52;4.20;;;2.47;;
25175;SDS011;13135;55.166;61.286;2023-05-20T12:50:37;7.53;;;2.53;;
25175;SDS011;13135;55.166;61.286;2023-05-20T12:53:22;5.60;;;2.28;;
25175;SDS011;13135;55.166;61.286;2023-05-20T12:56:10;4.90;;;2.00;;
25175;SDS011;13135;55.166;61.286;2023-05-20T12:58:57;2.20;;;1.90;;
25175;SDS011;13135;55.166;61.286;2023-05-20T13:01:44;4.95;;;1.48;;
25175;SDS011;13135;55.166;61.286;2023-05-20T13:04:29;3.55;;;1.70;;
25175;SDS011;13135;55.166;61.286;2023-05-20T13:07:14;4.03;;;1.67;;
25175;SDS011;13135;55.166;61.286;2023-05-20T13:09:56;1.83;;;1.30;;
25175;SDS011;13135;55.166;61.286;2023-05-20T13:12:40;2.85;;;1.73;;
25175;SDS011;13135;55.166;61.286;2023-05-20T13:15:25;2.50;;;1.65;;
25175;SDS011;13135;55.166;61.286;2023-05-20T13:18:12;4.82;;;1.77;;
25175;SDS011;13135;55.166;61.286;2023-05-20T13:20:57;2.90;;;1.42;;
25175;SDS011;13135;55.166;61.286;2023-05-20T13:23:43;2.90;;;1.70;;
25175;SDS011;13135;55.166;61.286;2023-05-20T13:26:28;5.25;;;1.92;;
25175;SDS011;13135;55.166;61.286;2023-05-20T13:29:15;4.43;;;2.22;;
25175;SDS011;13135;55.166;61.286;2023-05-20T13:31:56;2.97;;;1.95;;
25175;SDS011;13135;55.166;61.286;2023-05-20T13:34:41;4.47;;;1.70;;
25175;SDS011;13135;55.166;61.286;2023-05-20T13:37:28;3.92;;;1.90;;
25175;SDS011;13135;55.166;61.286;2023-05-20T13:40:12;4.05;;;1.98;;
25175;SDS011;13135;55.166;61.286;2023-05-20T13:42:59;6.68;;;2.10;;
25175;SDS011;13135;55.166;61.286;2023-05-20T13:45:43;2.92;;;1.55;;
25175;SDS011;13135;55.166;61.286;2023-05-20T13:48:28;4.03;;;1.90;;
25175;SDS011;13135;55.166;61.286;2023-05-20T13:51:13;6.07;;;1.85;;
25175;SDS011;13135;55.166;61.286;2023-05-20T13:53:58;5.80;;;1.90;;
25175;SDS011;13135;55.166;61.286;2023-05-20T13:56:44;2.35;;;1.70;;
25175;SDS011;13135;55.166;61.286;2023-05-20T13:59:31;2.58;;;1.55;;
25175;SDS011;13135;55.166;61.286;2023-05-20T14:02:17;9.95;;;7.32;;
25175;SDS011;13135;55.166;61.286;2023-05-20T14:05:05;9.82;;;6.35;;
25175;SDS011;13135;55.166;61.286;2023-05-20T14:08:11;5.65;;;3.55;;
25175;SDS011;13135;55.166;61.286;2023-05-20T14:10:55;5.15;;;2.40;;
25175;SDS011;13135;55.166;61.286;2023-05-20T14:13:42;10.63;;;3.45;;
25175;SDS011;13135;55.166;61.286;2023-05-20T14:16:27;8.63;;;3.08;;
25175;SDS011;13135;55.166;61.286;2023-05-20T14:19:12;4.53;;;2.12;;
25175;SDS011;13135;55.166;61.286;2023-05-20T14:21:57;4.55;;;2.22;;
25175;SDS011;13135;55.166;61.286;2023-05-20T14:24:40;5.75;;;2.58;;
25175;SDS011;13135;55.166;61.286;2023-05-20T14:27:24;4.75;;;2.37;;
25175;SDS011;13135;55.166;61.286;2023-05-20T14:30:09;2.92;;;2.10;;
25175;SDS011;13135;55.166;61.286;2023-05-20T14:32:57;3.97;;;2.17;;
25175;SDS011;13135;55.166;61.286;2023-05-20T14:35:42;5.45;;;1.65;;
25175;SDS011;13135;55.166;61.286;2023-05-20T14:38:27;3.87;;;2.00;;
25175;SDS011;13135;55.166;61.286;2023-05-20T14:41:12;5.40;;;2.20;;
25175;SDS011;13135;55.166;61.286;2023-05-20T14:43:56;7.12;;;3.05;;
25175;SDS011;13135;55.166;61.286;2023-05-20T14:46:43;4.15;;;2.22;;
25175;SDS011;13135;55.166;61.286;2023-05-20T14:49:28;6.72;;;2.87;;
25175;SDS011;13135;55.166;61.286;2023-05-20T14:52:14;9.35;;;2.72;;
25175;SDS011;13135;55.166;61.286;2023-05-20T14:54:59;10.80;;;6.32;;
25175;SDS011;13135;55.166;61.286;2023-05-20T14:57:43;4.45;;;2.87;;
25175;SDS011;13135;55.166;61.286;2023-05-20T15:00:28;5.97;;;4.12;;
25175;SDS011;13135;55.166;61.286;2023-05-20T15:03:14;7.22;;;3.50;;
25175;SDS011;13135;55.166;61.286;2023-05-20T15:06:00;5.15;;;3.05;;
25175;SDS011;13135;55.166;61.286;2023-05-20T15:08:47;8.18;;;3.60;;
25175;SDS011;13135;55.166;61.286;2023-05-20T15:11:37;6.47;;;2.90;;
25175;SDS011;13135;55.166;61.286;2023-05-20T15:14:19;7.37;;;3.03;;
25175;SDS011;13135;55.166;61.286;2023-05-20T15:17:06;10.50;;;3.50;;
25175;SDS011;13135;55.166;61.286;2023-05-20T15:19:53;7.07;;;3.12;;
25175;SDS011;13135;55.166;61.286;2023-05-20T15:22:38;9.75;;;3.80;;
25175;SDS011;13135;55.166;61.286;2023-05-20T15:25:21;7.20;;;4.07;;
25175;SDS011;13135;55.166;61.286;2023-05-20T15:28:03;7.15;;;4.10;;
25175;SDS011;13135;55.166;61.286;2023-05-20T15:30:52;6.37;;;3.60;;
25175;SDS011;13135;55.166;61.286;2023-05-20T15:33:35;8.95;;;3.78;;
25175;SDS011;13135;55.166;61.286;2023-05-20T15:36:28;8.73;;;3.35;;
25175;SDS011;13135;55.166;61.286;2023-05-20T15:39:12;9.18;;;3.90;;
25175;SDS011;13135;55.166;61.286;2023-05-20T15:41:58;13.05;;;7.43;;
25175;SDS011;13135;55.166;61.286;2023-05-20T15:44:43;9.30;;;5.25;;
25175;SDS011;13135;55.166;61.286;2023-05-20T15:47:26;8.40;;;4.70;;
25175;SDS011;13135;55.166;61.286;2023-05-20T15:50:10;13.00;;;4.68;;
25175;SDS011;13135;55.166;61.286;2023-05-20T15:52:54;12.45;;;5.10;;
25175;SDS011;13135;55.166;61.286;2023-05-20T15:55:39;12.85;;;5.43;;
25175;SDS011;13135;55.166;61.286;2023-05-20T15:58:25;10.43;;;5.12;;
25175;SDS011;13135;55.166;61.286;2023-05-20T16:01:09;9.93;;;4.70;;
25175;SDS011;13135;55.166;61.286;2023-05-20T16:03:54;12.25;;;5.22;;
25175;SDS011;13135;55.166;61.286;2023-05-20T16:06:41;10.43;;;5.28;;
25175;SDS011;13135;55.166;61.286;2023-05-20T16:09:31;11.07;;;5.82;;
25175;SDS011;13135;55.166;61.286;2023-05-20T16:12:18;12.18;;;5.05;;
25175;SDS011;13135;55.166;61.286;2023-05-20T16:15:02;10.98;;;5.10;;
25175;SDS011;13135;55.166;61.286;2023-05-20T16:17:46;11.90;;;7.10;;
25175;SDS011;13135;55.166;61.286;2023-05-20T16:20:32;16.52;;;6.10;;
25175;SDS011;13135;55.166;61.286;2023-05-20T16:23:19;14.52;;;6.60;;
25175;SDS011;13135;55.166;61.286;2023-05-20T16:26:08;10.07;;;5.93;;
25175;SDS011;13135;55.166;61.286;2023-05-20T16:28:53;13.65;;;6.20;;
25175;SDS011;13135;55.166;61.286;2023-05-20T16:31:38;20.15;;;7.35;;
25175;SDS011;13135;55.166;61.286;2023-05-20T16:34:24;14.40;;;7.87;;
25175;SDS011;13135;55.166;61.286;2023-05-20T16:37:08;14.68;;;7.28;;
25175;SDS011;13135;55.166;61.286;2023-05-20T16:39:55;15.07;;;6.55;;
25175;SDS011;13135;55.166;61.286;2023-05-20T16:42:41;22.87;;;9.32;;
25175;SDS011;13135;55.166;61.286;2023-05-20T16:45:26;13.50;;;6.60;;
25175;SDS011;13135;55.166;61.286;2023-05-20T16:48:10;22.92;;;7.45;;